Time;durP1;ratioP1;P1;durP2;ratioP2;P2;SDS_P1;SDS_P2;PMS_P1;PMS_P2;Temp;Humidity;BMP_temperature;BMP_pressure;BME280_temperature;BME280_humidity;BME280_pressure;Samples;Min_cycle;Max_cycle;Signal;HPM_P1;HPM_P2
2022/04/17 00:00:22;;;;;;;46.65;21.88;;;;;;;14.28;69.45;102332.44;7386354;19;20106;-63
2022/04/17 00:02:49;;;;;;;51.28;22.85;;;;;;;14.26;69.71;102334.41;7389175;19;20038;-68
2022/04/17 00:05:16;;;;;;;53.60;24.15;;;;;;;14.22;70.48;102328.53;7387466;19;20367;-64
2022/04/17 00:07:44;;;;;;;57.58;25.40;;;;;;;14.20;70.48;102324.38;7386868;19;20119;-66
2022/04/17 00:10:12;;;;;;;56.28;24.42;;;;;;;14.16;71.06;102322.97;7386143;19;20011;-66
2022/04/17 00:12:40;;;;;;;53.95;24.70;;;;;;;14.16;71.18;102322.97;7385270;19;20025;-65
2022/04/17 00:15:09;;;;;;;59.88;25.38;;;;;;;14.14;71.92;102310.72;7389343;19;20025;-66
2022/04/17 00:17:42;;;;;;;53.10;23.73;;;;;;;14.19;71.87;102317.41;7384737;19;20453;-66
2022/04/17 00:20:10;;;;;;;55.17;25.48;;;;;;;14.12;71.88;102310.00;7386798;19;20014;-66
2022/04/17 00:22:38;;;;;;;62.55;25.65;;;;;;;14.06;72.07;102307.09;7387610;19;20151;-64
2022/04/17 00:25:07;;;;;;;59.08;25.42;;;;;;;14.02;72.56;102305.69;7385129;19;20054;-65
2022/04/17 00:27:34;;;;;;;53.97;24.25;;;;;;;14.03;72.50;102300.25;7385035;19;20021;-66
2022/04/17 00:30:05;;;;;;;54.80;24.52;;;;;;;13.95;72.95;102316.00;7386563;19;20015;-64
2022/04/17 00:32:36;;;;;;;57.63;25.63;;;;;;;13.96;73.53;102308.91;7380950;19;20460;-65
2022/04/17 00:35:05;;;;;;;57.20;24.58;;;;;;;13.95;72.86;102301.94;7387894;19;20006;-64
2022/04/17 00:37:33;;;;;;;56.00;25.02;;;;;;;13.90;72.62;102305.00;7388308;19;20330;-64
2022/04/17 00:40:00;;;;;;;53.90;22.90;;;;;;;13.89;72.97;102297.19;7384736;19;20516;-64
2022/04/17 00:42:31;;;;;;;53.33;23.77;;;;;;;13.85;73.03;102290.50;7385348;19;20015;-67
2022/04/17 00:45:02;;;;;;;52.65;23.92;;;;;;;13.81;73.25;102289.94;7382468;19;20032;-63
2022/04/17 00:47:29;;;;;;;58.42;24.20;;;;;;;13.79;73.80;102294.53;7384509;19;20062;-64
2022/04/17 00:49:56;;;;;;;54.50;24.20;;;;;;;13.82;73.16;102288.94;7386030;19;20006;-66
2022/04/17 00:52:23;;;;;;;55.33;24.75;;;;;;;13.83;73.17;102287.16;7384047;19;20563;-66
2022/04/17 00:54:53;;;;;;;57.97;24.90;;;;;;;13.84;73.25;102287.03;7383822;19;20021;-66
2022/04/17 00:57:22;;;;;;;54.88;24.25;;;;;;;13.83;73.21;102287.16;7383878;19;20113;-65
2022/04/17 00:59:50;;;;;;;53.75;24.65;;;;;;;13.77;73.17;102277.09;7384114;19;20439;-65
2022/04/17 01:02:17;;;;;;;54.47;24.55;;;;;;;13.76;73.82;102278.09;7381784;19;20114;-67
2022/04/17 01:04:45;;;;;;;59.17;25.15;;;;;;;13.73;74.00;102273.91;7386227;19;20655;-66
2022/04/17 01:07:14;;;;;;;58.28;26.33;;;;;;;13.74;73.52;102270.31;7383684;19;20026;-66
2022/04/17 01:09:45;;;;;;;59.22;26.17;;;;;;;13.65;73.89;102271.97;7382149;19;20015;-63
2022/04/17 01:12:13;;;;;;;55.55;24.00;;;;;;;13.62;73.77;102269.56;7385584;19;20094;-67
2022/04/17 01:14:41;;;;;;;56.35;24.90;;;;;;;13.57;74.09;102269.16;7382327;19;20087;-65
2022/04/17 01:17:09;;;;;;;60.20;26.17;;;;;;;13.58;74.83;102268.19;7385367;19;20022;-63
2022/04/17 01:19:37;;;;;;;57.88;25.90;;;;;;;13.52;74.58;102262.59;7386667;19;20298;-66
2022/04/17 01:22:06;;;;;;;48.85;24.10;;;;;;;13.47;74.66;102260.38;7384348;19;20349;-66
2022/04/17 01:27:24;;;;;;;61.78;25.50;;;;;;;13.43;75.05;102253.69;7383713;19;20460;-66
2022/04/17 01:29:51;;;;;;;56.78;24.35;;;;;;;13.42;74.85;102257.28;7382095;19;20603;-66
2022/04/17 01:32:19;;;;;;;53.70;24.80;;;;;;;13.43;75.63;102250.19;7382862;19;20106;-64
2022/04/17 01:34:47;;;;;;;57.13;25.40;;;;;;;13.42;75.04;102252.00;7386305;19;20015;-65
2022/04/17 01:37:15;;;;;;;53.40;25.25;;;;;;;13.42;75.10;102246.72;7383253;19;20078;-67
2022/04/17 01:39:42;;;;;;;54.58;25.42;;;;;;;13.44;75.20;102250.06;7382772;19;20101;-67
2022/04/17 01:42:11;;;;;;;60.45;26.17;;;;;;;13.44;75.09;102251.88;7383209;19;20007;-64
2022/04/17 01:44:38;;;;;;;59.22;24.67;;;;;;;13.42;74.88;102243.22;7387402;19;20034;-66
2022/04/17 01:47:05;;;;;;;55.72;24.55;;;;;;;13.40;74.95;102243.38;7394340;19;20082;-67
2022/04/17 01:49:32;;;;;;;61.40;25.80;;;;;;;13.37;75.03;102234.88;7389767;19;20011;-66
2022/04/17 01:52:00;;;;;;;57.33;24.80;;;;;;;13.37;75.09;102232.22;7390876;19;20021;-65
2022/04/17 01:54:28;;;;;;;54.22;24.63;;;;;;;13.33;75.18;102233.47;7390878;19;20013;-67
2022/04/17 01:56:55;;;;;;;54.60;24.70;;;;;;;13.28;75.34;102234.72;7392278;19;20094;-65
2022/04/17 01:59:23;;;;;;;57.28;25.50;;;;;;;13.28;75.27;102218.03;7390312;19;20014;-65
2022/04/17 02:01:50;;;;;;;56.40;24.98;;;;;;;13.30;75.51;102218.75;7390846;19;20014;-63
2022/04/17 02:04:18;;;;;;;55.38;25.20;;;;;;;13.31;75.00;102228.31;7390080;19;20082;-63
2022/04/17 02:06:45;;;;;;;57.05;24.27;;;;;;;13.31;75.15;102211.66;7390390;19;20015;-65
2022/04/17 02:09:13;;;;;;;51.00;22.88;;;;;;;13.30;75.08;102208.16;7388171;19;20015;-65
2022/04/17 02:11:42;;;;;;;53.58;23.10;;;;;;;13.33;76.52;102207.88;7388756;19;20022;-67
2022/04/17 02:14:09;;;;;;;52.22;23.05;;;;;;;13.32;75.40;102208.84;7389820;19;20015;-65
2022/04/17 02:16:37;;;;;;;52.88;24.80;;;;;;;13.31;75.11;102209.81;7393572;19;20029;-65
2022/04/17 02:19:04;;;;;;;52.45;23.73;;;;;;;13.30;75.09;102205.53;7392310;19;20046;-64
2022/04/17 02:21:31;;;;;;;48.58;23.33;;;;;;;13.30;76.09;102199.41;7389417;19;20461;-66
2022/04/17 02:24:00;;;;;;;56.10;23.83;;;;;;;13.25;75.71;102200.66;7390419;19;20017;-68
2022/04/17 02:26:28;;;;;;;52.58;22.60;;;;;;;13.21;75.57;102190.44;7390730;19;20326;-65
2022/04/17 02:28:56;;;;;;;57.58;23.75;;;;;;;13.22;75.29;102192.13;7389028;19;20129;-64
2022/04/17 02:31:24;;;;;;;47.20;22.85;;;;;;;13.22;75.05;102186.84;7387375;19;20022;-65
2022/04/17 02:33:52;;;;;;;53.85;25.60;;;;;;;13.24;76.07;102185.75;7386605;19;20124;-65
2022/04/17 02:36:20;;;;;;;55.22;24.98;;;;;;;13.22;75.89;102178.91;7389967;19;20018;-66
2022/04/17 02:38:47;;;;;;;52.72;23.73;;;;;;;13.23;75.48;102170.84;7388134;19;20074;-64
2022/04/17 02:41:14;;;;;;;53.42;23.90;;;;;;;13.21;75.13;102172.78;7392483;19;20182;-66
2022/04/17 02:43:41;;;;;;;51.08;22.45;;;;;;;13.21;75.17;102170.16;7385102;19;20028;-65
2022/04/17 02:46:07;;;;;;;53.58;23.60;;;;;;;13.23;76.24;102180.59;7390642;19;20015;-65
2022/04/17 02:48:35;;;;;;;52.67;23.58;;;;;;;13.20;75.68;102181.72;7386742;19;20010;-67
2022/04/17 02:51:02;;;;;;;57.05;24.35;;;;;;;13.19;75.24;102180.03;7389812;19;20021;-65
2022/04/17 02:53:33;;;;;;;55.63;23.70;;;;;;;13.16;75.12;102179.44;7391249;19;20017;-64
2022/04/17 02:56:00;;;;;;;53.88;23.55;;;;;;;13.14;75.20;102176.97;7385963;19;20123;-66
2022/04/17 02:58:27;;;;;;;57.28;23.88;;;;;;;13.10;75.93;102180.81;7387970;19;20436;-63
2022/04/17 03:06:45;;;;;;;55.10;23.95;;;;;;;13.04;75.57;102169.97;7384263;19;20183;-65
2022/04/17 03:09:12;;;;;;;59.67;25.85;;;;;;;13.01;75.65;102159.63;7384600;19;20025;-65
2022/04/17 03:11:39;;;;;;;48.53;22.25;;;;;;;12.99;76.53;102166.88;7385892;19;20018;-67
2022/04/17 03:14:06;;;;;;;53.50;23.02;;;;;;;12.96;76.56;102152.13;7390968;19;20520;-66
2022/04/17 03:16:33;;;;;;;58.58;24.10;;;;;;;12.94;76.05;102155.88;7389623;19;20010;-65
2022/04/17 03:19:00;;;;;;;53.47;23.38;;;;;;;12.93;76.21;102160.31;7391765;19;20033;-63
2022/04/17 03:21:27;;;;;;;62.00;25.33;;;;;;;12.95;76.31;102158.41;7386491;19;20082;-68
2022/04/17 03:23:54;;;;;;;54.30;22.98;;;;;;;12.95;76.50;102155.75;7387106;19;20081;-66
2022/04/17 03:26:21;;;;;;;53.47;23.60;;;;;;;12.95;76.48;102157.56;7388198;19;20007;-67
2022/04/17 03:28:47;;;;;;;56.50;24.58;;;;;;;12.90;76.48;102139.44;7388371;19;20007;-67
2022/04/17 03:31:15;;;;;;;54.95;23.92;;;;;;;12.87;76.47;102147.66;7389769;19;20527;-63
2022/04/17 03:33:42;;;;;;;54.05;24.30;;;;;;;12.86;76.26;102141.53;7388061;19;20018;-66
2022/04/17 03:36:09;;;;;;;54.75;23.85;;;;;;;12.86;76.43;102146.81;7386910;19;20003;-68
2022/04/17 03:38:36;;;;;;;54.15;23.45;;;;;;;12.85;77.05;102141.66;7388139;19;20320;-66
2022/04/17 03:41:03;;;;;;;50.97;23.42;;;;;;;12.83;76.50;102140.97;7390065;19;20492;-67
2022/04/17 03:43:29;;;;;;;58.05;23.20;;;;;;;12.81;76.28;102141.09;7386683;19;20014;-65
2022/04/17 03:45:57;;;;;;;54.25;23.35;;;;;;;12.83;76.45;102131.25;7385726;19;20007;-66
2022/04/17 03:48:25;;;;;;;51.95;21.75;;;;;;;12.82;76.19;102121.66;7384517;19;20090;-65
2022/04/17 03:50:52;;;;;;;54.85;23.60;;;;;;;12.80;76.97;102130.66;7388916;19;20436;-65
2022/04/17 03:53:19;;;;;;;55.10;23.88;;;;;;;12.78;76.80;102129.97;7383466;19;20436;-64
2022/04/17 03:55:47;;;;;;;56.42;23.60;;;;;;;12.78;76.91;102124.69;7385753;19;20014;-66
2022/04/17 03:58:13;;;;;;;57.20;23.35;;;;;;;12.77;76.73;102123.84;7385437;19;20123;-64
2022/04/17 04:00:40;;;;;;;51.95;22.45;;;;;;;12.77;76.59;102128.31;7388951;19;20025;-67
2022/04/17 04:03:07;;;;;;;60.72;25.25;;;;;;;12.77;76.73;102121.22;7383287;19;20419;-67
2022/04/17 04:05:34;;;;;;;56.08;22.63;;;;;;;12.78;76.81;102122.91;7386562;19;20125;-63
2022/04/17 04:08:02;;;;;;;58.13;24.23;;;;;;;12.77;76.64;102123.03;7385986;19;20009;-65
2022/04/17 04:10:29;;;;;;;56.40;24.33;;;;;;;12.70;76.37;102113.94;7381091;19;20010;-66
2022/04/17 04:12:56;;;;;;;51.88;24.20;;;;;;;12.70;76.49;102109.50;7386481;19;20499;-64
2022/04/17 04:15:23;;;;;;;52.08;22.77;;;;;;;12.71;76.38;102115.63;7385036;19;20011;-69
2022/04/17 04:17:50;;;;;;;48.33;24.58;;;;;;;12.67;77.26;102117.72;7387790;19;20546;-62
2022/04/17 04:20:17;;;;;;;55.80;24.85;;;;;;;12.67;76.77;102107.16;7389515;19;20444;-66
2022/04/17 04:22:44;;;;;;;54.95;23.25;;;;;;;12.65;76.61;102109.06;7386092;19;20014;-64
2022/04/17 04:25:15;;;;;;;52.20;24.30;;;;;;;12.62;76.64;102097.97;7384553;19;20372;-65
2022/04/17 04:30:27;;;;;;;53.03;23.58;;;;;;;12.56;77.25;102101.97;7383422;19;20010;-65
2022/04/17 04:32:56;;;;;;;55.13;22.52;;;;;;;12.57;77.10;102103.66;7383779;19;20017;-66
2022/04/17 04:35:29;;;;;;;55.75;23.58;;;;;;;12.54;76.91;102098.66;7388062;19;20010;-66
2022/04/17 04:37:56;;;;;;;56.72;24.60;;;;;;;12.54;77.41;102103.09;7387013;19;20373;-66
2022/04/17 04:40:23;;;;;;;53.67;23.80;;;;;;;12.51;77.57;102101.53;7384432;19;20019;-64
2022/04/17 04:42:59;;;;;;;53.60;23.27;;;;;;;12.52;77.49;102095.28;7383868;19;20010;-67
2022/04/17 04:48:15;;;;;;;51.45;23.48;;;;;;;12.52;77.38;102097.94;7384371;19;20006;-66
2022/04/17 04:50:42;;;;;;;54.10;23.23;;;;;;;12.53;77.51;102104.06;7382444;19;20018;-64
2022/04/17 04:53:09;;;;;;;54.40;24.10;;;;;;;12.49;77.36;102095.56;7383273;19;20018;-67
2022/04/17 04:55:36;;;;;;;56.20;23.80;;;;;;;12.48;77.60;102090.41;7384534;19;20293;-66
2022/04/17 04:58:03;;;;;;;54.30;24.73;;;;;;;12.49;78.31;102097.38;7383318;19;20007;-65
2022/04/17 05:00:33;;;;;;;55.00;24.13;;;;;;;12.51;77.98;102095.41;7383895;19;20078;-64
2022/04/17 05:03:00;;;;;;;54.72;23.25;;;;;;;12.53;77.29;102096.13;7381181;19;20022;-64
2022/04/17 05:05:27;;;;;;;55.50;24.92;;;;;;;12.52;77.70;102092.66;7382708;19;20078;-63
2022/04/17 05:07:55;;;;;;;59.72;25.00;;;;;;;12.53;77.29;102088.22;7386936;19;20027;-64
2022/04/17 05:10:22;;;;;;;54.60;24.25;;;;;;;12.50;77.32;102091.09;7381710;19;20029;-65
2022/04/17 05:12:49;;;;;;;57.10;24.40;;;;;;;12.51;78.03;102084.84;7385998;19;20030;-64
2022/04/17 05:15:16;;;;;;;61.58;24.13;;;;;;;12.53;77.36;102089.03;7384032;19;20074;-63
2022/04/17 05:17:43;;;;;;;58.65;24.75;;;;;;;12.53;77.40;102089.03;7383411;19;20359;-67
2022/04/17 05:20:10;;;;;;;54.70;23.48;;;;;;;12.53;77.32;102072.38;7394674;19;20010;-65
2022/04/17 05:22:37;;;;;;;55.65;25.08;;;;;;;12.51;77.25;102076.94;7391692;19;20098;-63
2022/04/17 05:25:07;;;;;;;53.47;24.00;;;;;;;12.53;77.59;102083.75;7388574;19;20007;-63
2022/04/17 05:27:40;;;;;;;60.35;23.67;;;;;;;12.54;77.43;102081.97;7390887;19;20011;-64
2022/04/17 05:30:08;;;;;;;52.92;23.42;;;;;;;12.55;77.71;102083.59;7387087;19;20083;-63
2022/04/17 05:32:35;;;;;;;51.33;23.05;;;;;;;12.54;77.26;102077.53;7390081;19;20078;-65
2022/04/17 05:35:03;;;;;;;54.80;25.15;;;;;;;12.51;77.32;102074.28;7391909;19;20014;-65
2022/04/17 05:37:33;;;;;;;53.00;23.88;;;;;;;12.51;77.25;102072.50;7393025;19;20023;-64
2022/04/17 05:40:00;;;;;;;56.03;24.77;;;;;;;12.56;77.88;102078.22;7392865;19;20018;-61
2022/04/17 05:42:29;;;;;;;54.97;23.15;;;;;;;12.59;77.30;102062.13;7387940;19;20014;-67
2022/04/17 05:44:56;;;;;;;53.55;22.77;;;;;;;12.61;77.23;102069.88;7388960;19;20023;-64
2022/04/17 05:47:23;;;;;;;57.58;24.58;;;;;;;12.61;76.65;102068.06;7389963;19;20013;-66
2022/04/17 05:49:50;;;;;;;53.33;22.92;;;;;;;12.66;76.64;102065.88;7389258;19;20038;-63
2022/04/17 05:52:17;;;;;;;54.28;24.00;;;;;;;12.69;76.45;102067.41;7390022;19;20054;-65
2022/04/17 05:54:44;;;;;;;51.60;24.00;;;;;;;12.71;76.76;102061.00;7389740;19;20014;-63
2022/04/17 05:57:10;;;;;;;56.63;23.20;;;;;;;12.76;76.06;102058.78;7389953;19;20090;-67
2022/04/17 05:59:38;;;;;;;57.58;23.52;;;;;;;12.77;75.62;102055.19;7389033;19;20447;-64
2022/04/17 06:02:05;;;;;;;57.63;24.35;;;;;;;12.77;75.63;102062.28;7388451;19;20409;-65
2022/04/17 06:04:37;;;;;;;53.85;23.10;;;;;;;12.78;75.90;102056.88;7392010;19;20144;-65
2022/04/17 06:07:04;;;;;;;58.03;24.58;;;;;;;12.84;76.43;102055.47;7393447;19;20011;-65
2022/04/17 06:09:31;;;;;;;52.80;22.98;;;;;;;12.92;76.14;102057.44;7389419;19;20125;-67
2022/04/17 06:11:58;;;;;;;51.08;22.60;;;;;;;12.97;75.19;102049.91;7390406;19;20430;-64
2022/04/17 06:14:24;;;;;;;45.55;21.83;;;;;;;13.01;74.45;102054.78;7390373;19;20016;-64
2022/04/17 06:16:51;;;;;;;52.25;21.95;;;;;;;13.02;74.28;102051.19;7390558;19;20064;-65
2022/04/17 06:19:18;;;;;;;49.55;22.15;;;;;;;13.05;74.46;102050.91;7391272;19;20078;-64
2022/04/17 06:21:45;;;;;;;50.05;22.60;;;;;;;13.09;74.90;102054.13;7390386;19;20026;-69
2022/04/17 06:24:12;;;;;;;57.45;22.75;;;;;;;13.17;74.26;102062.19;7390352;19;20019;-65
2022/04/17 06:26:39;;;;;;;50.28;23.23;;;;;;;13.20;73.94;102059.31;7388401;19;20435;-65
2022/04/17 06:29:08;;;;;;;49.78;23.17;;;;;;;13.22;73.80;102063.47;7388775;19;20019;-62
2022/04/17 06:31:35;;;;;;;57.67;24.13;;;;;;;13.26;73.64;102054.25;7386872;19;20383;-66
2022/04/17 06:34:02;;;;;;;58.05;23.55;;;;;;;13.31;73.54;102055.69;7390103;19;20546;-63
2022/04/17 06:36:29;;;;;;;50.92;22.92;;;;;;;13.40;75.23;102058.31;7389871;19;20015;-64
2022/04/17 06:38:56;;;;;;;51.53;22.23;;;;;;;13.47;73.71;102058.56;7389199;19;20028;-64
2022/04/17 06:41:22;;;;;;;49.45;22.83;;;;;;;13.53;73.06;102053.56;7388033;19;20373;-62
2022/04/17 06:43:50;;;;;;;54.08;22.25;;;;;;;13.59;72.60;102054.81;7388252;19;20010;-62
2022/04/17 06:46:17;;;;;;;51.20;22.65;;;;;;;13.69;72.25;102061.75;7386784;19;20015;-66
2022/04/17 06:48:44;;;;;;;48.53;23.10;;;;;;;13.83;71.71;102055.16;7390405;19;20034;-64
2022/04/17 06:51:11;;;;;;;49.38;22.52;;;;;;;14.09;71.35;102053.53;7389643;19;20160;-64
2022/04/17 06:53:38;;;;;;;55.13;23.67;;;;;;;14.36;69.73;102051.91;7388666;19;20018;-66
2022/04/17 06:56:07;;;;;;;48.72;23.45;;;;;;;14.45;68.96;102053.69;7391113;19;20017;-66
2022/04/17 06:58:34;;;;;;;52.35;22.33;;;;;;;14.53;68.35;102035.22;7390035;19;20352;-65
2022/04/17 07:01:01;;;;;;;54.42;22.88;;;;;;;14.68;67.96;102044.34;7391500;19;20010;-65
2022/04/17 07:03:28;;;;;;;50.35;22.70;;;;;;;14.84;68.16;102047.16;7389843;19;20007;-64
2022/04/17 07:05:55;;;;;;;45.33;21.00;;;;;;;14.96;67.42;102043.31;7391103;19;20073;-65
2022/04/17 07:08:22;;;;;;;43.75;19.67;;;;;;;15.06;65.41;102039.75;7387979;19;20010;-67
2022/04/17 07:10:49;;;;;;;38.00;17.75;;;;;;;15.13;63.92;102040.81;7385606;19;20448;-66
2022/04/17 07:13:16;;;;;;;36.45;18.10;;;;;;;15.21;63.60;102047.03;7390129;19;20464;-69
2022/04/17 07:15:43;;;;;;;36.20;17.45;;;;;;;15.27;62.53;102043.75;7389852;19;20301;-65
2022/04/17 07:18:10;;;;;;;42.97;18.95;;;;;;;15.25;62.69;102043.06;7387183;19;20015;-68
2022/04/17 07:20:37;;;;;;;42.65;19.95;;;;;;;15.28;62.36;102044.59;7389759;19;20021;-64
2022/04/17 07:23:06;;;;;;;38.53;18.58;;;;;;;15.30;61.84;102043.44;7383001;19;20170;-65
2022/04/17 07:25:33;;;;;;;40.45;19.17;;;;;;;15.32;61.96;102044.13;7389441;19;20022;-68
2022/04/17 07:28:00;;;;;;;40.33;19.73;;;;;;;15.27;62.24;102037.63;7385406;19;20021;-64
2022/04/17 07:30:30;;;;;;;38.50;18.88;;;;;;;15.25;62.13;102036.94;7384427;19;20011;-63
2022/04/17 07:32:59;;;;;;;37.45;18.02;;;;;;;15.27;62.38;102037.63;7390760;19;20086;-64
2022/04/17 07:35:27;;;;;;;32.33;17.15;;;;;;;15.26;61.98;102035.94;7390851;19;20013;-66
2022/04/17 07:38:00;;;;;;;35.53;17.90;;;;;;;15.38;61.27;102037.38;7388639;19;20041;-64
2022/04/17 07:40:30;;;;;;;37.95;16.55;;;;;;;15.43;61.65;102028.97;7387099;19;20011;-67
2022/04/17 07:42:59;;;;;;;40.00;17.65;;;;;;;15.52;61.20;102031.53;7387735;19;20104;-67
2022/04/17 07:45:27;;;;;;;36.03;16.17;;;;;;;15.61;60.36;102019.16;7389811;19;20377;-65
2022/04/17 07:47:54;;;;;;;37.67;17.25;;;;;;;15.73;60.88;102025.88;7384844;19;20018;-65
2022/04/17 07:50:24;;;;;;;33.53;16.30;;;;;;;15.94;59.40;102023.69;7387836;19;20028;-66
2022/04/17 07:52:53;;;;;;;29.58;14.70;;;;;;;16.23;58.71;102026.78;7388306;19;20082;-66
2022/04/17 07:55:21;;;;;;;30.63;15.88;;;;;;;16.58;57.28;102022.25;7385904;19;20019;-66
2022/04/17 07:58:11;;;;;;;31.58;14.25;;;;;;;16.88;55.72;102023.50;7387668;19;20578;-65
2022/04/17 08:00:45;;;;;;;29.90;15.35;;;;;;;17.03;55.48;102020.03;7388175;19;20026;-64
2022/04/17 08:03:21;;;;;;;31.92;16.42;;;;;;;17.04;55.41;102013.72;7383219;19;20026;-63
2022/04/17 08:05:49;;;;;;;29.80;15.65;;;;;;;17.09;55.16;102011.41;7389345;19;20018;-66
2022/04/17 08:08:16;;;;;;;28.35;14.52;;;;;;;17.13;55.31;102014.53;7385598;19;20402;-67
2022/04/17 08:10:43;;;;;;;29.25;14.75;;;;;;;17.19;54.83;102011.22;7387080;19;20468;-66
2022/04/17 08:13:10;;;;;;;29.25;13.50;;;;;;;17.34;54.43;102012.22;7382914;19;20024;-65
2022/04/17 08:15:37;;;;;;;28.92;13.93;;;;;;;17.36;53.79;102004.91;7387550;19;20018;-64
2022/04/17 08:18:04;;;;;;;29.85;14.55;;;;;;;17.33;53.92;102004.38;7384359;19;20011;-66
2022/04/17 08:20:31;;;;;;;25.48;13.15;;;;;;;17.27;54.11;102003.22;7381065;19;20011;-65
2022/04/17 08:22:58;;;;;;;25.40;13.88;;;;;;;17.18;54.87;102001.56;7386359;19;20022;-66
2022/04/17 08:25:26;;;;;;;32.45;13.20;;;;;;;17.09;54.78;101992.78;7385047;19;20019;-66
2022/04/17 08:27:55;;;;;;;23.45;11.95;;;;;;;17.01;55.25;102000.75;7388894;19;20106;-65
2022/04/17 08:30:25;;;;;;;25.95;12.98;;;;;;;16.88;55.99;101991.59;7389237;19;20043;-65
2022/04/17 08:32:52;;;;;;;22.92;12.55;;;;;;;16.83;55.85;101988.59;7386793;19;20102;-66
2022/04/17 08:35:20;;;;;;;26.17;12.48;;;;;;;16.78;56.09;101990.91;7388365;19;20013;-66
2022/04/17 08:37:47;;;;;;;25.38;12.82;;;;;;;16.78;56.09;101988.25;7387303;19;20022;-63
2022/04/17 08:40:15;;;;;;;20.30;11.25;;;;;;;16.80;57.23;101988.94;7384427;19;20094;-67
2022/04/17 08:42:42;;;;;;;21.23;10.50;;;;;;;16.84;55.06;101982.28;7384618;19;20007;-64
2022/04/17 08:45:15;;;;;;;20.60;10.80;;;;;;;16.87;55.20;101982.78;7384838;19;20448;-66
2022/04/17 08:47:43;;;;;;;22.40;9.88;;;;;;;16.92;55.19;101979.63;7386895;19;20025;-67
2022/04/17 08:50:12;;;;;;;20.95;9.73;;;;;;;16.99;54.62;101981.47;7388850;19;20023;-65
2022/04/17 08:52:43;;;;;;;18.50;8.57;;;;;;;17.04;54.38;101970.34;7381999;19;20017;-64
2022/04/17 08:55:15;;;;;;;16.63;8.20;;;;;;;17.06;53.56;101973.66;7384450;19;20018;-66
2022/04/17 08:57:43;;;;;;;12.82;6.38;;;;;;;17.08;52.62;101976.97;7386216;19;20067;-65
2022/04/17 09:00:16;;;;;;;11.77;6.10;;;;;;;17.14;52.17;101970.16;7386932;19;20093;-66
2022/04/17 09:02:45;;;;;;;10.20;5.10;;;;;;;17.20;51.69;101970.31;7384440;19;20030;-65
2022/04/17 09:05:18;;;;;;;7.50;3.90;;;;;;;17.30;51.29;101970.97;7387790;19;20018;-65
2022/04/17 09:07:47;;;;;;;;;;;;;;;17.39;49.15;101961.97;7384646;19;20405;-66
2022/04/17 09:10:28;;;;;;;6.93;2.50;;;;;;;17.46;48.28;101957.66;7386249;19;19942;-65
2022/04/17 09:12:57;;;;;;;4.82;2.60;;;;;;;17.54;48.93;101964.78;7384231;19;20475;-66
2022/04/17 09:15:26;;;;;;;6.90;2.78;;;;;;;17.64;49.33;101962.78;7385787;19;20194;-66
2022/04/17 09:17:53;;;;;;;5.90;2.83;;;;;;;17.78;48.98;101966.56;7385815;19;20153;-65
2022/04/17 09:20:22;;;;;;;5.45;2.25;;;;;;;17.84;47.24;101963.22;7386879;19;20018;-65
2022/04/17 09:22:52;;;;;;;5.63;1.92;;;;;;;17.95;46.91;101954.84;7384725;19;20090;-65
2022/04/17 09:25:22;;;;;;;6.68;1.98;;;;;;;17.94;45.48;101948.69;7383914;19;20031;-65
2022/04/17 09:27:56;;;;;;;4.35;1.80;;;;;;;18.05;46.61;101943.97;7384111;19;20026;-65
2022/04/17 09:30:26;;;;;;;7.05;2.03;;;;;;;18.16;46.02;101951.59;7383463;19;20010;-66
2022/04/17 09:32:53;;;;;;;3.75;1.73;;;;;;;18.26;46.91;101937.03;7382307;19;20011;-65
2022/04/17 09:35:24;;;;;;;5.28;1.73;;;;;;;18.38;45.66;101945.47;7387547;19;20029;-65
2022/04/17 09:37:59;;;;;;;3.80;1.40;;;;;;;18.47;44.87;101939.09;7387408;19;20018;-64
2022/04/17 09:40:27;;;;;;;4.88;1.85;;;;;;;18.51;43.36;101935.06;7381501;19;20018;-67
2022/04/17 09:43:11;;;;;;;3.28;1.40;;;;;;;18.57;42.30;101928.22;7384414;19;20025;-66
2022/04/17 09:46:05;;;;;;;2.65;1.25;;;;;;;18.57;42.80;101929.03;7383508;19;20068;-65
2022/04/17 09:48:36;;;;;;;3.83;1.23;;;;;;;18.62;44.08;101920.50;7385965;19;20031;-66
2022/04/17 09:51:22;;;;;;;3.10;1.13;;;;;;;18.69;44.43;101918.78;7382358;19;20074;-66
2022/04/17 09:54:00;;;;;;;5.35;1.27;;;;;;;18.76;43.60;101915.22;7386575;19;20074;-66
2022/04/17 09:56:41;;;;;;;4.13;1.38;;;;;;;18.83;43.24;101923.34;7383139;19;20447;-65
2022/04/17 09:59:18;;;;;;;4.15;1.20;;;;;;;18.86;42.51;101919.47;7384538;19;20018;-64
2022/04/17 10:02:07;;;;;;;5.97;1.25;;;;;;;18.87;42.26;101915.81;7383286;19;20019;-68
2022/04/17 10:04:37;;;;;;;2.55;1.00;;;;;;;18.91;43.11;101909.91;7386788;19;20031;-68
2022/04/17 10:07:05;;;;;;;3.60;1.10;;;;;;;18.95;42.33;101919.22;7387497;19;20043;-65
2022/04/17 10:09:32;;;;;;;3.45;1.10;;;;;;;18.91;40.86;101901.91;7392930;19;20406;-66
2022/04/17 10:12:00;;;;;;;8.20;1.02;;;;;;;18.92;40.15;101910.75;7386239;19;20011;-65
2022/04/17 10:14:28;;;;;;;3.97;0.70;;;;;;;18.91;40.92;101899.25;7392367;19;20085;-65
2022/04/17 10:16:57;;;;;;;3.08;0.75;;;;;;;18.96;42.28;101893.38;7390599;19;20030;-66
2022/04/17 10:19:27;;;;;;;3.58;0.93;;;;;;;19.04;42.91;101891.47;7391403;19;20476;-64
2022/04/17 10:21:58;;;;;;;2.40;0.80;;;;;;;19.01;41.66;101889.16;7393604;19;20003;-65
2022/04/17 10:24:26;;;;;;;2.83;0.73;;;;;;;19.09;42.21;101883.75;7391479;19;20042;-65
2022/04/17 10:26:54;;;;;;;1.48;0.70;;;;;;;19.14;41.14;101878.69;7389643;19;20094;-66
2022/04/17 10:29:32;;;;;;;1.70;0.80;;;;;;;19.19;40.51;101875.47;7389378;19;20444;-67
2022/04/17 10:32:16;;;;;;;5.00;1.10;;;;;;;19.21;40.87;101871.59;7387638;19;20017;-63
2022/04/17 10:35:01;;;;;;;3.80;1.08;;;;;;;19.22;41.43;101865.25;7391414;19;20551;-66
2022/04/17 10:38:08;;;;;;;2.90;0.90;;;;;;;19.21;40.80;101866.25;7392991;19;20444;-67
2022/04/17 10:40:35;;;;;;;2.92;0.90;;;;;;;19.23;40.72;101856.25;7389808;19;20503;-67
2022/04/17 10:43:03;;;;;;;3.17;1.08;;;;;;;19.21;40.39;101860.91;7388913;19;20094;-66
2022/04/17 10:45:31;;;;;;;1.73;0.70;;;;;;;19.22;40.21;101851.06;7386344;19;20117;-65
2022/04/17 10:48:08;;;;;;;1.88;0.70;;;;;;;19.23;40.39;101855.41;7389095;19;20034;-68
2022/04/17 10:50:42;;;;;;;2.08;0.82;;;;;;;19.27;40.66;101851.34;7385779;19;20567;-67
2022/04/17 10:53:25;;;;;;;1.88;0.80;;;;;;;19.31;40.53;101833.94;7386380;19;20021;-67
2022/04/17 10:56:10;;;;;;;3.20;0.80;;;;;;;19.39;40.21;101835.72;7385871;19;20078;-67
2022/04/17 10:58:37;;;;;;;3.17;0.93;;;;;;;19.42;39.48;101821.97;7392201;19;20405;-66
2022/04/17 11:01:04;;;;;;;3.22;0.90;;;;;;;19.44;40.05;101810.13;7387791;19;20306;-67
2022/04/17 11:03:34;;;;;;;2.42;0.70;;;;;;;19.46;39.53;101799.25;7391839;19;20545;-64
2022/04/17 11:06:30;;;;;;;3.90;0.88;;;;;;;19.51;39.54;101802.19;7390631;19;20010;-66
2022/04/17 11:09:09;;;;;;;1.45;0.70;;;;;;;19.58;39.56;101803.09;7390114;19;20087;-67
2022/04/17 11:11:43;;;;;;;1.85;0.70;;;;;;;19.61;38.94;101802.72;7387153;19;20729;-65
2022/04/17 11:14:16;;;;;;;2.45;0.70;;;;;;;19.62;38.92;101796.38;7390212;19;20071;-67
2022/04/17 11:17:11;;;;;;;2.03;0.77;;;;;;;19.58;38.49;101792.44;7388461;19;20444;-67
2022/04/17 11:19:39;;;;;;;1.73;0.70;;;;;;;19.56;38.71;101791.78;7391095;19;20007;-67
2022/04/17 11:22:08;;;;;;;2.00;0.63;;;;;;;19.55;38.88;101785.63;7387449;19;20030;-64
2022/04/17 11:24:55;;;;;;;4.75;0.80;;;;;;;19.62;39.29;101780.34;7391714;19;20014;-65
2022/04/17 11:27:41;;;;;;;1.95;0.70;;;;;;;19.66;38.25;101780.81;7385378;19;20007;-65
2022/04/17 11:30:34;;;;;;;2.70;0.60;;;;;;;19.68;38.72;101776.09;7385573;19;20046;-66
2022/04/17 11:33:02;;;;;;;2.33;0.60;;;;;;;19.70;39.41;101768.72;7387340;19;20050;-66
2022/04/17 11:35:30;;;;;;;1.67;0.63;;;;;;;19.76;38.25;101766.09;7391362;19;20253;-66
2022/04/17 11:38:08;;;;;;;2.42;0.90;;;;;;;19.76;39.11;101771.44;7391097;19;20569;-66